sensor_id;sensor_type;location;lat;lon;timestamp;pressure;altitude;pressure_sealevel;temperature;humidity
59951;BME280;45812;53.540;9.774;2023-03-13T00:00:30;100208.06;;;6.11;100.00
59951;BME280;45812;53.540;9.774;2023-03-13T00:02:56;100206.88;;;6.23;100.00
59951;BME280;45812;53.540;9.774;2023-03-13T00:05:21;100202.28;;;6.25;100.00
59951;BME280;45812;53.540;9.774;2023-03-13T00:07:46;100201.66;;;6.13;100.00
59951;BME280;45812;53.540;9.774;2023-03-13T00:10:11;100197.66;;;6.09;100.00
59951;BME280;45812;53.540;9.774;2023-03-13T00:12:37;100201.41;;;6.06;100.00
59951;BME280;45812;53.540;9.774;2023-03-13T00:15:02;100205.34;;;6.02;100.00
59951;BME280;45812;53.540;9.774;2023-03-13T00:17:27;100195.91;;;6.00;100.00
59951;BME280;45812;53.540;9.774;2023-03-13T00:19:53;100187.16;;;5.99;100.00
59951;BME280;45812;53.540;9.774;2023-03-13T00:22:20;100184.38;;;6.01;100.00
59951;BME280;45812;53.540;9.774;2023-03-13T00:24:45;100188.97;;;5.99;100.00
59951;BME280;45812;53.540;9.774;2023-03-13T00:27:10;100174.69;;;6.10;100.00
59951;BME280;45812;53.540;9.774;2023-03-13T00:29:36;100183.16;;;6.13;100.00
59951;BME280;45812;53.540;9.774;2023-03-13T00:32:01;100164.38;;;6.16;100.00
59951;BME280;45812;53.540;9.774;2023-03-13T00:34:26;100161.06;;;6.14;100.00
59951;BME280;45812;53.540;9.774;2023-03-13T00:36:53;100161.13;;;6.22;100.00
59951;BME280;45812;53.540;9.774;2023-03-13T00:39:19;100153.41;;;6.29;100.00
59951;BME280;45812;53.540;9.774;2023-03-13T00:41:45;100156.06;;;6.29;100.00
59951;BME280;45812;53.540;9.774;2023-03-13T00:44:10;100136.56;;;6.30;100.00
59951;BME280;45812;53.540;9.774;2023-03-13T00:46:36;100141.19;;;6.28;100.00
59951;BME280;45812;53.540;9.774;2023-03-13T00:49:01;100125.25;;;6.37;100.00
59951;BME280;45812;53.540;9.774;2023-03-13T00:51:27;100128.75;;;6.38;100.00
59951;BME280;45812;53.540;9.774;2023-03-13T00:53:54;100128.66;;;6.30;100.00
59951;BME280;45812;53.540;9.774;2023-03-13T00:56:19;100124.44;;;6.37;100.00
59951;BME280;45812;53.540;9.774;2023-03-13T00:58:46;100124.34;;;6.47;100.00
59951;BME280;45812;53.540;9.774;2023-03-13T01:03:42;100123.91;;;6.51;100.00
59951;BME280;45812;53.540;9.774;2023-03-13T01:06:10;100113.06;;;6.62;100.00
59951;BME280;45812;53.540;9.774;2023-03-13T01:08:36;100106.50;;;6.49;100.00
59951;BME280;45812;53.540;9.774;2023-03-13T01:11:05;100105.97;;;6.45;100.00
59951;BME280;45812;53.540;9.774;2023-03-13T01:13:31;100107.41;;;6.57;100.00
59951;BME280;45812;53.540;9.774;2023-03-13T01:16:00;100104.25;;;6.54;100.00
59951;BME280;45812;53.540;9.774;2023-03-13T01:18:26;100093.13;;;6.50;100.00
59951;BME280;45812;53.540;9.774;2023-03-13T01:20:51;100087.09;;;6.58;100.00
59951;BME280;45812;53.540;9.774;2023-03-13T01:23:17;100090.03;;;6.55;100.00
59951;BME280;45812;53.540;9.774;2023-03-13T01:25:42;100076.97;;;6.53;100.00
59951;BME280;45812;53.540;9.774;2023-03-13T01:28:07;100072.41;;;6.63;100.00
59951;BME280;45812;53.540;9.774;2023-03-13T01:30:32;100065.78;;;6.59;100.00
59951;BME280;45812;53.540;9.774;2023-03-13T01:32:58;100057.53;;;6.62;100.00
59951;BME280;45812;53.540;9.774;2023-03-13T01:35:23;100058.34;;;6.63;100.00
59951;BME280;45812;53.540;9.774;2023-03-13T01:37:48;100050.94;;;6.66;100.00
59951;BME280;45812;53.540;9.774;2023-03-13T01:40:13;100046.28;;;6.60;100.00
59951;BME280;45812;53.540;9.774;2023-03-13T01:42:57;100027.69;;;6.70;100.00
59951;BME280;45812;53.540;9.774;2023-03-13T01:48:16;100012.69;;;6.53;100.00
59951;BME280;45812;53.540;9.774;2023-03-13T01:50:41;100005.63;;;6.61;100.00
59951;BME280;45812;53.540;9.774;2023-03-13T01:53:07;100000.00;;;6.56;100.00
59951;BME280;45812;53.540;9.774;2023-03-13T01:55:32;99996.34;;;6.57;100.00
59951;BME280;45812;53.540;9.774;2023-03-13T01:57:58;99990.75;;;6.60;100.00
59951;BME280;45812;53.540;9.774;2023-03-13T02:00:29;99993.41;;;6.60;100.00
59951;BME280;45812;53.540;9.774;2023-03-13T02:03:02;99984.88;;;6.75;100.00
59951;BME280;45812;53.540;9.774;2023-03-13T02:05:30;99972.44;;;6.67;100.00
59951;BME280;45812;53.540;9.774;2023-03-13T02:08:14;99965.66;;;6.64;100.00
59951;BME280;45812;53.540;9.774;2023-03-13T02:11:34;99970.41;;;6.53;100.00
59951;BME280;45812;53.540;9.774;2023-03-13T02:13:32;99957.38;;;6.59;100.00
59951;BME280;45812;53.540;9.774;2023-03-13T02:15:58;99950.75;;;6.55;100.00
59951;BME280;45812;53.540;9.774;2023-03-13T02:18:23;99942.97;;;6.54;100.00
59951;BME280;45812;53.540;9.774;2023-03-13T02:20:52;99946.53;;;6.71;100.00
59951;BME280;45812;53.540;9.774;2023-03-13T02:23:28;99928.63;;;6.64;100.00
59951;BME280;45812;53.540;9.774;2023-03-13T02:25:55;99928.28;;;6.59;100.00
59951;BME280;45812;53.540;9.774;2023-03-13T02:28:29;99923.81;;;6.60;100.00
59951;BME280;45812;53.540;9.774;2023-03-13T02:30:58;99922.50;;;6.64;100.00
59951;BME280;45812;53.540;9.774;2023-03-13T02:33:29;99919.53;;;6.59;100.00
59951;BME280;45812;53.540;9.774;2023-03-13T02:35:56;99913.06;;;6.53;100.00
59951;BME280;45812;53.540;9.774;2023-03-13T02:38:26;99908.78;;;6.60;100.00
59951;BME280;45812;53.540;9.774;2023-03-13T02:40:53;99900.19;;;6.58;100.00
59951;BME280;45812;53.540;9.774;2023-03-13T02:43:29;99883.00;;;6.62;100.00
59951;BME280;45812;53.540;9.774;2023-03-13T02:46:07;99888.59;;;6.51;100.00
59951;BME280;45812;53.540;9.774;2023-03-13T02:48:36;99884.00;;;6.61;100.00
59951;BME280;45812;53.540;9.774;2023-03-13T02:51:11;99884.66;;;6.63;100.00
59951;BME280;45812;53.540;9.774;2023-03-13T02:53:38;99879.34;;;6.55;100.00
59951;BME280;45812;53.540;9.774;2023-03-13T02:56:04;99874.91;;;6.64;100.00
59951;BME280;45812;53.540;9.774;2023-03-13T02:58:37;99876.34;;;6.50;100.00
59951;BME280;45812;53.540;9.774;2023-03-13T03:01:02;99857.53;;;6.53;100.00
59951;BME280;45812;53.540;9.774;2023-03-13T03:03:32;99854.75;;;6.63;100.00
59951;BME280;45812;53.540;9.774;2023-03-13T03:05:57;99840.34;;;6.57;100.00
59951;BME280;45812;53.540;9.774;2023-03-13T03:08:22;99836.06;;;6.64;100.00
59951;BME280;45812;53.540;9.774;2023-03-13T03:10:47;99843.81;;;6.58;100.00
59951;BME280;45812;53.540;9.774;2023-03-13T03:13:13;99827.63;;;6.61;100.00
59951;BME280;45812;53.540;9.774;2023-03-13T03:15:38;99820.19;;;6.64;100.00
59951;BME280;45812;53.540;9.774;2023-03-13T03:18:03;99827.16;;;6.65;100.00
59951;BME280;45812;53.540;9.774;2023-03-13T03:20:29;99810.28;;;6.58;100.00
59951;BME280;45812;53.540;9.774;2023-03-13T03:22:54;99811.94;;;6.67;100.00
59951;BME280;45812;53.540;9.774;2023-03-13T03:25:19;99799.53;;;6.60;100.00
59951;BME280;45812;53.540;9.774;2023-03-13T03:27:45;99798.88;;;6.58;100.00
59951;BME280;45812;53.540;9.774;2023-03-13T03:30:11;99796.06;;;6.59;100.00
59951;BME280;45812;53.540;9.774;2023-03-13T03:32:36;99784.88;;;6.74;100.00
59951;BME280;45812;53.540;9.774;2023-03-13T03:35:01;99783.69;;;6.68;100.00
59951;BME280;45812;53.540;9.774;2023-03-13T03:37:27;99785.34;;;6.69;100.00
59951;BME280;45812;53.540;9.774;2023-03-13T03:39:52;99775.75;;;6.68;100.00
59951;BME280;45812;53.540;9.774;2023-03-13T03:42:17;99775.59;;;6.61;100.00
59951;BME280;45812;53.540;9.774;2023-03-13T03:44:43;99773.94;;;6.68;100.00
59951;BME280;45812;53.540;9.774;2023-03-13T03:47:08;99765.03;;;6.70;100.00
59951;BME280;45812;53.540;9.774;2023-03-13T03:49:33;99761.56;;;6.77;100.00
59951;BME280;45812;53.540;9.774;2023-03-13T03:51:58;99757.44;;;6.75;100.00
59951;BME280;45812;53.540;9.774;2023-03-13T03:54:24;99742.38;;;6.67;100.00
59951;BME280;45812;53.540;9.774;2023-03-13T03:56:49;99739.75;;;6.75;100.00
59951;BME280;45812;53.540;9.774;2023-03-13T03:59:14;99756.25;;;6.69;100.00
59951;BME280;45812;53.540;9.774;2023-03-13T04:01:39;99729.97;;;6.67;100.00
59951;BME280;45812;53.540;9.774;2023-03-13T04:04:05;99735.75;;;6.63;100.00
59951;BME280;45812;53.540;9.774;2023-03-13T04:06:30;99718.41;;;6.68;100.00
59951;BME280;45812;53.540;9.774;2023-03-13T04:08:55;99726.66;;;6.65;100.00
59951;BME280;45812;53.540;9.774;2023-03-13T04:11:20;99709.34;;;6.71;100.00
59951;BME280;45812;53.540;9.774;2023-03-13T04:13:46;99709.97;;;6.65;100.00
59951;BME280;45812;53.540;9.774;2023-03-13T04:16:11;99695.09;;;6.64;100.00
59951;BME280;45812;53.540;9.774;2023-03-13T04:18:37;99699.41;;;6.65;100.00
59951;BME280;45812;53.540;9.774;2023-03-13T04:21:03;99668.69;;;6.72;100.00
59951;BME280;45812;53.540;9.774;2023-03-13T04:23:29;99673.63;;;6.75;100.00
59951;BME280;45812;53.540;9.774;2023-03-13T04:25:54;99667.19;;;6.70;100.00
59951;BME280;45812;53.540;9.774;2023-03-13T04:28:19;99653.63;;;6.73;100.00
59951;BME280;45812;53.540;9.774;2023-03-13T04:30:45;99646.03;;;6.70;100.00
59951;BME280;45812;53.540;9.774;2023-03-13T04:33:10;99634.78;;;6.67;100.00
59951;BME280;45812;53.540;9.774;2023-03-13T04:35:35;99639.59;;;6.72;100.00
59951;BME280;45812;53.540;9.774;2023-03-13T04:38:00;99625.19;;;6.66;100.00
59951;BME280;45812;53.540;9.774;2023-03-13T04:40:27;99619.25;;;6.73;100.00
59951;BME280;45812;53.540;9.774;2023-03-13T04:42:52;99612.78;;;6.67;100.00
59951;BME280;45812;53.540;9.774;2023-03-13T04:45:17;99606.53;;;6.76;100.00
59951;BME280;45812;53.540;9.774;2023-03-13T04:47:42;99601.56;;;6.73;100.00
59951;BME280;45812;53.540;9.774;2023-03-13T04:50:08;99592.13;;;6.79;100.00
59951;BME280;45812;53.540;9.774;2023-03-13T04:52:33;99582.53;;;6.78;100.00
59951;BME280;45812;53.540;9.774;2023-03-13T04:54:59;99572.44;;;6.81;100.00
59951;BME280;45812;53.540;9.774;2023-03-13T04:57:24;99556.59;;;6.81;100.00
59951;BME280;45812;53.540;9.774;2023-03-13T04:59:49;99561.34;;;6.86;100.00
59951;BME280;45812;53.540;9.774;2023-03-13T05:02:14;99527.97;;;6.85;100.00
59951;BME280;45812;53.540;9.774;2023-03-13T05:04:40;99531.31;;;6.79;100.00
59951;BME280;45812;53.540;9.774;2023-03-13T05:07:05;99518.41;;;6.76;100.00
59951;BME280;45812;53.540;9.774;2023-03-13T05:09:30;99511.13;;;6.78;100.00
59951;BME280;45812;53.540;9.774;2023-03-13T05:11:55;99514.59;;;6.78;100.00
59951;BME280;45812;53.540;9.774;2023-03-13T05:14:21;99503.69;;;6.81;100.00
59951;BME280;45812;53.540;9.774;2023-03-13T05:16:46;99490.59;;;6.88;100.00
59951;BME280;45812;53.540;9.774;2023-03-13T05:19:11;99498.22;;;6.83;100.00
59951;BME280;45812;53.540;9.774;2023-03-13T05:21:36;99483.81;;;6.93;100.00
59951;BME280;45812;53.540;9.774;2023-03-13T05:24:02;99490.94;;;6.85;100.00
59951;BME280;45812;53.540;9.774;2023-03-13T05:26:27;99490.28;;;6.83;100.00
59951;BME280;45812;53.540;9.774;2023-03-13T05:28:52;99475.09;;;6.77;100.00
59951;BME280;45812;53.540;9.774;2023-03-13T05:31:17;99487.50;;;6.76;100.00
59951;BME280;45812;53.540;9.774;2023-03-13T05:33:43;99484.81;;;6.84;100.00
59951;BME280;45812;53.540;9.774;2023-03-13T05:36:08;99475.88;;;6.85;100.00
59951;BME280;45812;53.540;9.774;2023-03-13T05:38:33;99479.34;;;6.86;100.00
59951;BME280;45812;53.540;9.774;2023-03-13T05:40:58;99455.38;;;6.95;100.00
59951;BME280;45812;53.540;9.774;2023-03-13T05:43:24;99448.06;;;6.97;100.00
59951;BME280;45812;53.540;9.774;2023-03-13T05:45:49;99461.78;;;7.01;100.00
59951;BME280;45812;53.540;9.774;2023-03-13T05:48:14;99442.72;;;7.06;100.00
59951;BME280;45812;53.540;9.774;2023-03-13T05:50:39;99439.97;;;6.99;100.00
59951;BME280;45812;53.540;9.774;2023-03-13T05:53:05;99423.91;;;7.01;100.00
59951;BME280;45812;53.540;9.774;2023-03-13T05:55:30;99424.06;;;7.07;100.00
59951;BME280;45812;53.540;9.774;2023-03-13T05:57:55;99412.81;;;7.05;100.00
59951;BME280;45812;53.540;9.774;2023-03-13T06:00:21;99418.78;;;7.07;100.00
59951;BME280;45812;53.540;9.774;2023-03-13T06:02:46;99419.59;;;7.08;100.00
59951;BME280;45812;53.540;9.774;2023-03-13T06:05:11;99418.25;;;7.12;100.00
59951;BME280;45812;53.540;9.774;2023-03-13T06:07:37;99406.47;;;7.14;100.00
59951;BME280;45812;53.540;9.774;2023-03-13T06:10:03;99395.91;;;7.14;100.00
59951;BME280;45812;53.540;9.774;2023-03-13T06:12:28;99415.00;;;7.24;100.00
59951;BME280;45812;53.540;9.774;2023-03-13T06:14:53;99419.78;;;7.29;100.00
59951;BME280;45812;53.540;9.774;2023-03-13T06:17:19;99420.91;;;7.35;100.00
59951;BME280;45812;53.540;9.774;2023-03-13T06:19:45;99415.69;;;7.49;100.00
59951;BME280;45812;53.540;9.774;2023-03-13T06:22:10;99407.47;;;7.44;100.00
59951;BME280;45812;53.540;9.774;2023-03-13T06:24:36;99401.16;;;7.45;100.00
59951;BME280;45812;53.540;9.774;2023-03-13T06:27:01;99384.56;;;7.51;100.00
59951;BME280;45812;53.540;9.774;2023-03-13T06:29:26;99396.78;;;7.52;100.00
59951;BME280;45812;53.540;9.774;2023-03-13T06:31:52;99380.91;;;7.52;100.00
59951;BME280;45812;53.540;9.774;2023-03-13T06:34:17;99385.19;;;7.53;100.00
59951;BME280;45812;53.540;9.774;2023-03-13T06:36:42;99376.91;;;7.56;100.00
59951;BME280;45812;53.540;9.774;2023-03-13T06:39:08;99363.28;;;7.59;100.00
59951;BME280;45812;53.540;9.774;2023-03-13T06:41:34;99365.94;;;7.59;100.00
59951;BME280;45812;53.540;9.774;2023-03-13T06:43:59;99350.28;;;7.73;100.00
59951;BME280;45812;53.540;9.774;2023-03-13T06:46:24;99354.38;;;7.75;100.00
59951;BME280;45812;53.540;9.774;2023-03-13T06:48:50;99342.72;;;7.84;100.00
59951;BME280;45812;53.540;9.774;2023-03-13T06:51:18;99331.66;;;7.96;100.00
59951;BME280;45812;53.540;9.774;2023-03-13T06:53:44;99318.41;;;7.96;100.00
59951;BME280;45812;53.540;9.774;2023-03-13T06:56:10;99341.56;;;8.02;100.00
59951;BME280;45812;53.540;9.774;2023-03-13T06:58:35;99330.31;;;8.00;100.00
59951;BME280;45812;53.540;9.774;2023-03-13T07:01:11;99328.00;;;7.97;100.00
59951;BME280;45812;53.540;9.774;2023-03-13T07:03:37;99334.75;;;7.99;100.00
59951;BME280;45812;53.540;9.774;2023-03-13T07:06:04;99316.59;;;8.11;100.00
59951;BME280;45812;53.540;9.774;2023-03-13T07:08:30;99320.34;;;8.16;100.00
59951;BME280;45812;53.540;9.774;2023-03-13T07:11:01;99326.63;;;8.15;100.00
59951;BME280;45812;53.540;9.774;2023-03-13T07:13:27;99316.22;;;8.29;100.00
59951;BME280;45812;53.540;9.774;2023-03-13T07:15:53;99296.28;;;8.33;100.00
59951;BME280;45812;53.540;9.774;2023-03-13T07:18:19;99303.41;;;8.32;100.00
59951;BME280;45812;53.540;9.774;2023-03-13T07:20:51;99306.72;;;8.34;100.00
59951;BME280;45812;53.540;9.774;2023-03-13T07:23:16;99302.06;;;8.36;100.00
59951;BME280;45812;53.540;9.774;2023-03-13T07:25:41;99300.97;;;8.45;100.00
59951;BME280;45812;53.540;9.774;2023-03-13T07:28:06;99302.50;;;8.55;100.00
59951;BME280;45812;53.540;9.774;2023-03-13T07:30:32;99303.16;;;8.57;100.00
59951;BME280;45812;53.540;9.774;2023-03-13T07:32:57;99290.41;;;8.67;100.00
59951;BME280;45812;53.540;9.774;2023-03-13T07:35:22;99313.25;;;8.68;100.00
59951;BME280;45812;53.540;9.774;2023-03-13T07:37:47;99302.28;;;8.71;100.00
59951;BME280;45812;53.540;9.774;2023-03-13T07:40:12;99288.66;;;8.74;100.00
59951;BME280;45812;53.540;9.774;2023-03-13T07:42:41;99284.84;;;8.83;100.00
59951;BME280;45812;53.540;9.774;2023-03-13T07:45:07;99304.94;;;8.92;100.00
59951;BME280;45812;53.540;9.774;2023-03-13T07:47:33;99276.84;;;8.98;100.00
59951;BME280;45812;53.540;9.774;2023-03-13T07:49:59;99286.25;;;9.00;100.00
59951;BME280;45812;53.540;9.774;2023-03-13T07:52:25;99291.81;;;9.05;100.00
59951;BME280;45812;53.540;9.774;2023-03-13T07:54:52;99283.47;;;9.08;100.00
59951;BME280;45812;53.540;9.774;2023-03-13T07:57:17;99273.47;;;9.10;100.00
59951;BME280;45812;53.540;9.774;2023-03-13T07:59:42;99268.00;;;9.12;100.00
59951;BME280;45812;53.540;9.774;2023-03-13T08:02:10;99267.22;;;9.18;100.00
59951;BME280;45812;53.540;9.774;2023-03-13T08:04:37;99273.59;;;9.24;100.00
59951;BME280;45812;53.540;9.774;2023-03-13T08:07:07;99279.16;;;9.29;100.00
59951;BME280;45812;53.540;9.774;2023-03-13T08:09:32;99252.66;;;9.35;100.00
59951;BME280;45812;53.540;9.774;2023-03-13T08:11:57;99254.53;;;9.41;100.00
59951;BME280;45812;53.540;9.774;2023-03-13T08:14:23;99255.78;;;9.46;100.00
59951;BME280;45812;53.540;9.774;2023-03-13T08:16:48;99285.63;;;9.48;100.00
59951;BME280;45812;53.540;9.774;2023-03-13T08:19:13;99250.59;;;9.59;100.00
59951;BME280;45812;53.540;9.774;2023-03-13T08:21:38;99263.03;;;9.58;100.00
59951;BME280;45812;53.540;9.774;2023-03-13T08:24:06;99247.13;;;9.65;100.00
59951;BME280;45812;53.540;9.774;2023-03-13T08:26:34;99247.59;;;9.68;100.00
59951;BME280;45812;53.540;9.774;2023-03-13T08:29:02;99255.63;;;9.82;100.00
59951;BME280;45812;53.540;9.774;2023-03-13T08:31:36;99263.84;;;9.87;100.00
59951;BME280;45812;53.540;9.774;2023-03-13T08:34:01;99294.09;;;9.86;100.00
59951;BME280;45812;53.540;9.774;2023-03-13T08:36:34;99265.09;;;9.91;100.00
59951;BME280;45812;53.540;9.774;2023-03-13T08:39:06;99246.91;;;9.94;100.00
59951;BME280;45812;53.540;9.774;2023-03-13T08:41:33;99253.84;;;9.89;100.00
59951;BME280;45812;53.540;9.774;2023-03-13T08:44:01;99245.28;;;9.93;100.00
59951;BME280;45812;53.540;9.774;2023-03-13T08:46:32;99241.63;;;10.01;100.00
59951;BME280;45812;53.540;9.774;2023-03-13T08:48:57;99231.44;;;10.05;100.00
59951;BME280;45812;53.540;9.774;2023-03-13T08:51:25;99239.84;;;10.08;100.00
59951;BME280;45812;53.540;9.774;2023-03-13T08:53:51;99251.09;;;10.10;100.00
59951;BME280;45812;53.540;9.774;2023-03-13T08:56:18;99228.19;;;10.16;100.00
59951;BME280;45812;53.540;9.774;2023-03-13T08:58:47;99239.09;;;10.21;100.00
59951;BME280;45812;53.540;9.774;2023-03-13T09:01:13;99232.91;;;10.20;100.00
59951;BME280;45812;53.540;9.774;2023-03-13T09:03:40;99247.72;;;10.23;100.00
59951;BME280;45812;53.540;9.774;2023-03-13T09:06:07;99233.63;;;10.36;100.00
59951;BME280;45812;53.540;9.774;2023-03-13T09:08:32;99221.34;;;10.35;100.00
59951;BME280;45812;53.540;9.774;2023-03-13T09:11:03;99238.53;;;10.39;100.00
59951;BME280;45812;53.540;9.774;2023-03-13T09:13:31;99225.47;;;10.44;100.00
59951;BME280;45812;53.540;9.774;2023-03-13T09:16:02;99223.88;;;10.63;100.00
59951;BME280;45812;53.540;9.774;2023-03-13T09:18:28;99218.38;;;10.64;100.00
59951;BME280;45812;53.540;9.774;2023-03-13T09:20:54;99232.28;;;10.66;100.00
59951;BME280;45812;53.540;9.774;2023-03-13T09:23:20;99215.28;;;10.67;100.00
59951;BME280;45812;53.540;9.774;2023-03-13T09:25:47;99216.72;;;10.76;100.00
59951;BME280;45812;53.540;9.774;2023-03-13T09:28:12;99222.66;;;10.78;100.00
59951;BME280;45812;53.540;9.774;2023-03-13T09:30:38;99225.16;;;10.80;100.00
59951;BME280;45812;53.540;9.774;2023-03-13T09:33:03;99214.69;;;10.78;100.00
59951;BME280;45812;53.540;9.774;2023-03-13T09:35:28;99230.25;;;10.75;100.00
59951;BME280;45812;53.540;9.774;2023-03-13T09:37:54;99227.00;;;10.79;100.00
59951;BME280;45812;53.540;9.774;2023-03-13T09:40:21;99240.31;;;10.79;100.00
59951;BME280;45812;53.540;9.774;2023-03-13T09:42:54;99232.53;;;10.84;100.00
59951;BME280;45812;53.540;9.774;2023-03-13T09:45:47;99240.31;;;10.79;100.00
59951;BME280;45812;53.540;9.774;2023-03-13T09:48:31;99240.31;;;10.92;100.00
59951;BME280;45812;53.540;9.774;2023-03-13T09:51:17;99237.66;;;11.06;100.00
59951;BME280;45812;53.540;9.774;2023-03-13T09:53:50;99233.34;;;11.11;100.00
59951;BME280;45812;53.540;9.774;2023-03-13T09:56:18;99258.94;;;11.12;100.00
59951;BME280;45812;53.540;9.774;2023-03-13T09:58:54;99239.50;;;11.18;100.00
59951;BME280;45812;53.540;9.774;2023-03-13T10:01:26;99234.59;;;11.22;100.00
59951;BME280;45812;53.540;9.774;2023-03-13T10:04:07;99239.91;;;11.22;100.00
59951;BME280;45812;53.540;9.774;2023-03-13T10:06:40;99239.31;;;11.20;100.00
59951;BME280;45812;53.540;9.774;2023-03-13T10:09:30;99233.97;;;11.13;100.00
59951;BME280;45812;53.540;9.774;2023-03-13T10:14:34;99244.22;;;11.36;100.00
59951;BME280;45812;53.540;9.774;2023-03-13T10:17:14;99254.06;;;11.36;100.00
59951;BME280;45812;53.540;9.774;2023-03-13T10:19:42;99266.16;;;11.38;100.00
59951;BME280;45812;53.540;9.774;2023-03-13T10:22:17;99267.59;;;11.34;100.00
59951;BME280;45812;53.540;9.774;2023-03-13T10:25:38;99269.22;;;11.48;100.00
59951;BME280;45812;53.540;9.774;2023-03-13T10:27:47;99252.38;;;11.88;100.00
59951;BME280;45812;53.540;9.774;2023-03-13T10:30:42;99273.44;;;12.98;100.00
59951;BME280;45812;53.540;9.774;2023-03-13T10:35:38;99257.94;;;13.39;100.00
59951;BME280;45812;53.540;9.774;2023-03-13T10:38:12;99233.50;;;13.10;100.00
59951;BME280;45812;53.540;9.774;2023-03-13T10:40:38;99215.63;;;13.36;100.00
59951;BME280;45812;53.540;9.774;2023-03-13T10:43:13;99233.69;;;13.40;100.00
59951;BME280;45812;53.540;9.774;2023-03-13T10:45:39;99222.28;;;14.24;100.00
59951;BME280;45812;53.540;9.774;2023-03-13T10:48:18;99210.09;;;13.74;100.00
59951;BME280;45812;53.540;9.774;2023-03-13T10:50:49;99241.88;;;13.14;100.00
59951;BME280;45812;53.540;9.774;2023-03-13T10:55:54;99217.94;;;12.37;100.00
59951;BME280;45812;53.540;9.774;2023-03-13T10:58:29;99229.06;;;12.21;100.00
59951;BME280;45812;53.540;9.774;2023-03-13T11:01:20;99221.59;;;11.98;100.00
59951;BME280;45812;53.540;9.774;2023-03-13T11:03:47;99228.56;;;11.86;100.00
59951;BME280;45812;53.540;9.774;2023-03-13T11:06:24;99231.47;;;11.85;100.00
59951;BME280;45812;53.540;9.774;2023-03-13T11:09:12;99228.38;;;11.88;100.00
59951;BME280;45812;53.540;9.774;2023-03-13T11:11:49;99214.41;;;12.43;100.00
59951;BME280;45812;53.540;9.774;2023-03-13T11:14:20;99221.84;;;13.73;100.00
59951;BME280;45812;53.540;9.774;2023-03-13T11:16:53;99214.94;;;15.22;100.00
59951;BME280;45812;53.540;9.774;2023-03-13T11:19:29;99222.06;;;15.39;100.00
59951;BME280;45812;53.540;9.774;2023-03-13T11:24:56;99186.28;;;14.69;100.00
59951;BME280;45812;53.540;9.774;2023-03-13T11:27:48;99208.63;;;16.78;88.69
59951;BME280;45812;53.540;9.774;2023-03-13T11:33:03;99159.94;;;17.47;80.49
59951;BME280;45812;53.540;9.774;2023-03-13T11:35:39;99184.19;;;16.23;85.01
59951;BME280;45812;53.540;9.774;2023-03-13T11:38:18;99173.38;;;15.66;87.98
59951;BME280;45812;53.540;9.774;2023-03-13T11:41:06;99167.25;;;15.00;91.18
59951;BME280;45812;53.540;9.774;2023-03-13T11:43:49;99164.72;;;14.52;94.51
59951;BME280;45812;53.540;9.774;2023-03-13T11:48:59;99183.91;;;14.91;94.15
59951;BME280;45812;53.540;9.774;2023-03-13T11:54:20;99177.94;;;17.80;76.87
59951;BME280;45812;53.540;9.774;2023-03-13T12:02:51;99153.88;;;18.17;72.91
59951;BME280;45812;53.540;9.774;2023-03-13T12:05:20;99174.25;;;17.86;71.38
59951;BME280;45812;53.540;9.774;2023-03-13T12:08:02;99140.75;;;18.74;71.28
59951;BME280;45812;53.540;9.774;2023-03-13T12:10:33;99178.53;;;20.74;58.16
59951;BME280;45812;53.540;9.774;2023-03-13T12:13:40;99133.59;;;21.49;52.61
59951;BME280;45812;53.540;9.774;2023-03-13T12:16:14;99145.00;;;19.82;56.97
59951;BME280;45812;53.540;9.774;2023-03-13T12:18:44;99134.94;;;18.61;62.06
59951;BME280;45812;53.540;9.774;2023-03-13T12:21:27;99128.56;;;17.31;69.93
59951;BME280;45812;53.540;9.774;2023-03-13T12:24:18;99162.78;;;17.18;71.86
59951;BME280;45812;53.540;9.774;2023-03-13T12:27:11;99135.31;;;17.33;71.60
59951;BME280;45812;53.540;9.774;2023-03-13T12:29:56;99158.22;;;17.96;65.06
59951;BME280;45812;53.540;9.774;2023-03-13T12:32:39;99134.75;;;17.31;72.26
59951;BME280;45812;53.540;9.774;2023-03-13T12:40:28;99186.63;;;19.12;59.92
59951;BME280;45812;53.540;9.774;2023-03-13T12:43:03;99190.13;;;19.12;61.86
59951;BME280;45812;53.540;9.774;2023-03-13T12:45:36;99213.06;;;19.47;54.99
59951;BME280;45812;53.540;9.774;2023-03-13T12:56:25;99105.50;;;20.69;49.23
59951;BME280;45812;53.540;9.774;2023-03-13T12:59:03;99126.41;;;19.95;51.37
59951;BME280;45812;53.540;9.774;2023-03-13T13:01:34;99113.97;;;19.37;53.68
59951;BME280;45812;53.540;9.774;2023-03-13T13:04:14;99146.75;;;18.82;52.47
59951;BME280;45812;53.540;9.774;2023-03-13T13:09:30;99097.41;;;20.84;44.71
59951;BME280;45812;53.540;9.774;2023-03-13T13:12:17;99119.03;;;20.69;45.50
59951;BME280;45812;53.540;9.774;2023-03-13T13:23:21;99076.41;;;19.25;51.23
59951;BME280;45812;53.540;9.774;2023-03-13T13:25:48;99078.19;;;20.60;47.20
59951;BME280;45812;53.540;9.774;2023-03-13T13:30:46;99095.97;;;21.48;43.10
59951;BME280;45812;53.540;9.774;2023-03-13T13:35:44;99060.00;;;21.22;44.14
59951;BME280;45812;53.540;9.774;2023-03-13T13:43:35;99049.88;;;22.17;41.51
59951;BME280;45812;53.540;9.774;2023-03-13T13:46:26;99045.34;;;21.38;41.97
59951;BME280;45812;53.540;9.774;2023-03-13T13:49:12;99029.00;;;20.58;45.55
59951;BME280;45812;53.540;9.774;2023-03-13T13:51:40;99050.84;;;20.16;45.75
59951;BME280;45812;53.540;9.774;2023-03-13T13:56:39;99009.97;;;21.24;44.24
59951;BME280;45812;53.540;9.774;2023-03-13T14:01:50;99010.19;;;22.94;40.51
59951;BME280;45812;53.540;9.774;2023-03-13T14:04:30;99018.66;;;22.59;40.49
59951;BME280;45812;53.540;9.774;2023-03-13T14:07:00;99006.34;;;23.24;38.89
59951;BME280;45812;53.540;9.774;2023-03-13T14:09:33;99026.50;;;22.60;39.50
59951;BME280;45812;53.540;9.774;2023-03-13T14:11:59;99013.66;;;22.71;38.95
59951;BME280;45812;53.540;9.774;2023-03-13T14:14:24;98997.00;;;21.75;41.12
59951;BME280;45812;53.540;9.774;2023-03-13T14:16:54;99046.81;;;20.34;44.57